Ted Stevens Anchorage International Airport Anchorage US
ICAO: PANC
IATA: ANC
Category: Large
Scheduled Services:

Elevation: 152 ft
TransAlt. 18000 ft.

Airport Communications:
APP/DEP:119.1
APP/DEP:123.8
ATIS:118.4
TWEB:114.3
CLNC DEL:119.4
KENAI RDO:122.2
GND:121.9
SAN FRANCISCO ARINC:1133
CAMPER:140.15
KENAI RDO:122.55
TWR:118.3
UNICOM:122.95

PANC Zoom In..

Runways:

(A) RW 07L length 10600 ft width 150 ft
ILS 109.90 / hdg 71

(B) RW 07R length 12400 ft width 200 ft
ILS 111.30 / hdg 71

(C) RW 15 length 11584 ft width 150 ft
ILS 111.75 / hdg 146

(D) RW 25L length 12400 ft width 200 ft
---- / hdg 251

(E) RW 25R length 10600 ft width 150 ft
---- / hdg 251

(F) RW 33 length 11584 ft width 150 ft
---- / hdg 326

Location; PANC
Day. 19 / Time. 00.53 Zulu
* Altimeter: 30.24
* Temperature: 13° c. 55.4°f.
* Wind from: 000° Speed 00 kn.
Dewpoint: -03° c.
Visibility: 10 Statute Miles.
Clouds: Few 9500 ft.
Clouds: Broken 14000 ft.
Clouds: Broken 25000 ft.

PANC 190053Z 00000KT 10SM FEW095 BKN140 BKN250 13/M03 A3024 RMK AO2 SLP242 T01281028 VISNO N $

Going to: --> -->


Wind - Calm.

 
 
jpsmedia worldairports.se 2021   terms of use